sensor_id;sensor_type;location;lat;lon;timestamp;P1;durP1;ratioP1;P2;durP2;ratioP2
30384;SDS011;17181;51.002;4.096;2023-04-09T00:01:09;26.57;;;15.17;;
30384;SDS011;17181;51.002;4.096;2023-04-09T00:03:36;27.87;;;15.60;;
30384;SDS011;17181;51.002;4.096;2023-04-09T00:06:05;34.73;;;16.93;;
30384;SDS011;17181;51.002;4.096;2023-04-09T00:08:31;45.50;;;20.30;;
30384;SDS011;17181;51.002;4.096;2023-04-09T00:10:58;26.40;;;12.37;;
30384;SDS011;17181;51.002;4.096;2023-04-09T00:13:24;39.30;;;17.80;;
30384;SDS011;17181;51.002;4.096;2023-04-09T00:15:50;29.33;;;14.83;;
30384;SDS011;17181;51.002;4.096;2023-04-09T00:18:16;34.60;;;16.83;;
30384;SDS011;17181;51.002;4.096;2023-04-09T00:20:42;31.53;;;13.47;;
30384;SDS011;17181;51.002;4.096;2023-04-09T00:23:08;29.30;;;15.13;;
30384;SDS011;17181;51.002;4.096;2023-04-09T00:25:34;39.83;;;18.90;;
30384;SDS011;17181;51.002;4.096;2023-04-09T00:28:00;32.13;;;16.10;;
30384;SDS011;17181;51.002;4.096;2023-04-09T00:30:29;40.77;;;21.47;;
30384;SDS011;17181;51.002;4.096;2023-04-09T00:32:56;46.40;;;21.00;;
30384;SDS011;17181;51.002;4.096;2023-04-09T00:35:22;47.43;;;21.60;;
30384;SDS011;17181;51.002;4.096;2023-04-09T00:37:48;36.77;;;18.30;;
30384;SDS011;17181;51.002;4.096;2023-04-09T00:40:15;39.90;;;21.27;;
30384;SDS011;17181;51.002;4.096;2023-04-09T00:42:40;36.73;;;18.90;;
30384;SDS011;17181;51.002;4.096;2023-04-09T00:45:06;23.50;;;12.10;;
30384;SDS011;17181;51.002;4.096;2023-04-09T00:47:33;13.47;;;8.63;;
30384;SDS011;17181;51.002;4.096;2023-04-09T00:49:59;34.50;;;16.03;;
30384;SDS011;17181;51.002;4.096;2023-04-09T00:52:26;16.47;;;10.10;;
30384;SDS011;17181;51.002;4.096;2023-04-09T00:54:55;22.83;;;12.20;;
30384;SDS011;17181;51.002;4.096;2023-04-09T00:57:22;29.47;;;15.37;;
30384;SDS011;17181;51.002;4.096;2023-04-09T00:59:48;28.70;;;14.00;;
30384;SDS011;17181;51.002;4.096;2023-04-09T01:02:14;27.83;;;14.80;;
30384;SDS011;17181;51.002;4.096;2023-04-09T01:04:41;25.97;;;14.87;;
30384;SDS011;17181;51.002;4.096;2023-04-09T01:07:11;38.00;;;19.87;;
30384;SDS011;17181;51.002;4.096;2023-04-09T01:10:00;37.60;;;17.40;;
30384;SDS011;17181;51.002;4.096;2023-04-09T01:13:00;34.00;;;17.20;;
30384;SDS011;17181;51.002;4.096;2023-04-09T01:15:27;26.43;;;12.97;;
30384;SDS011;17181;51.002;4.096;2023-04-09T01:20:39;32.17;;;16.27;;
30384;SDS011;17181;51.002;4.096;2023-04-09T01:26:12;35.37;;;18.37;;
30384;SDS011;17181;51.002;4.096;2023-04-09T01:28:53;28.90;;;15.43;;
30384;SDS011;17181;51.002;4.096;2023-04-09T01:31:24;34.37;;;16.07;;
30384;SDS011;17181;51.002;4.096;2023-04-09T01:33:53;36.53;;;17.23;;
30384;SDS011;17181;51.002;4.096;2023-04-09T01:36:20;28.13;;;14.43;;
30384;SDS011;17181;51.002;4.096;2023-04-09T01:38:46;34.33;;;18.57;;
30384;SDS011;17181;51.002;4.096;2023-04-09T01:41:16;34.13;;;19.00;;
30384;SDS011;17181;51.002;4.096;2023-04-09T01:43:45;33.67;;;18.50;;
30384;SDS011;17181;51.002;4.096;2023-04-09T01:46:20;30.80;;;17.13;;
30384;SDS011;17181;51.002;4.096;2023-04-09T01:48:46;28.50;;;16.20;;
30384;SDS011;17181;51.002;4.096;2023-04-09T01:51:14;34.70;;;16.13;;
30384;SDS011;17181;51.002;4.096;2023-04-09T01:53:40;33.47;;;17.53;;
30384;SDS011;17181;51.002;4.096;2023-04-09T01:56:07;40.83;;;18.73;;
30384;SDS011;17181;51.002;4.096;2023-04-09T01:58:33;36.27;;;19.53;;
30384;SDS011;17181;51.002;4.096;2023-04-09T02:01:04;39.77;;;19.23;;
30384;SDS011;17181;51.002;4.096;2023-04-09T02:03:38;33.03;;;18.60;;
30384;SDS011;17181;51.002;4.096;2023-04-09T02:08:55;24.27;;;11.97;;
30384;SDS011;17181;51.002;4.096;2023-04-09T02:11:24;22.40;;;12.20;;
30384;SDS011;17181;51.002;4.096;2023-04-09T02:13:53;26.07;;;14.57;;
30384;SDS011;17181;51.002;4.096;2023-04-09T02:16:19;27.97;;;14.03;;
30384;SDS011;17181;51.002;4.096;2023-04-09T02:18:49;30.20;;;16.63;;
30384;SDS011;17181;51.002;4.096;2023-04-09T02:21:25;27.03;;;15.30;;
30384;SDS011;17181;51.002;4.096;2023-04-09T02:23:53;42.80;;;21.87;;
30384;SDS011;17181;51.002;4.096;2023-04-09T02:26:20;36.93;;;15.77;;
30384;SDS011;17181;51.002;4.096;2023-04-09T02:28:46;31.87;;;15.57;;
30384;SDS011;17181;51.002;4.096;2023-04-09T02:31:12;35.37;;;18.03;;
30384;SDS011;17181;51.002;4.096;2023-04-09T02:33:38;43.07;;;20.10;;
30384;SDS011;17181;51.002;4.096;2023-04-09T02:36:04;41.17;;;18.17;;
30384;SDS011;17181;51.002;4.096;2023-04-09T02:38:30;29.07;;;16.10;;
30384;SDS011;17181;51.002;4.096;2023-04-09T02:40:56;30.67;;;15.90;;
30384;SDS011;17181;51.002;4.096;2023-04-09T02:43:22;27.00;;;15.80;;
30384;SDS011;17181;51.002;4.096;2023-04-09T02:45:48;28.53;;;16.03;;
30384;SDS011;17181;51.002;4.096;2023-04-09T02:48:14;23.67;;;12.63;;
30384;SDS011;17181;51.002;4.096;2023-04-09T02:50:42;24.03;;;14.47;;
30384;SDS011;17181;51.002;4.096;2023-04-09T02:53:08;24.53;;;13.93;;
30384;SDS011;17181;51.002;4.096;2023-04-09T02:55:34;24.20;;;14.17;;
30384;SDS011;17181;51.002;4.096;2023-04-09T02:58:00;29.87;;;13.60;;
30384;SDS011;17181;51.002;4.096;2023-04-09T03:00:26;24.90;;;13.73;;
30384;SDS011;17181;51.002;4.096;2023-04-09T03:02:53;22.90;;;12.57;;
30384;SDS011;17181;51.002;4.096;2023-04-09T03:05:18;34.23;;;16.13;;
30384;SDS011;17181;51.002;4.096;2023-04-09T03:07:45;29.70;;;16.90;;
30384;SDS011;17181;51.002;4.096;2023-04-09T03:10:11;24.10;;;11.13;;
30384;SDS011;17181;51.002;4.096;2023-04-09T03:12:37;20.23;;;11.30;;
30384;SDS011;17181;51.002;4.096;2023-04-09T03:15:03;21.83;;;13.57;;
30384;SDS011;17181;51.002;4.096;2023-04-09T03:17:29;11.90;;;6.73;;
30384;SDS011;17181;51.002;4.096;2023-04-09T03:19:56;29.13;;;7.43;;
30384;SDS011;17181;51.002;4.096;2023-04-09T03:22:22;7.90;;;5.47;;
30384;SDS011;17181;51.002;4.096;2023-04-09T03:24:51;17.83;;;9.63;;
30384;SDS011;17181;51.002;4.096;2023-04-09T03:27:17;24.33;;;11.57;;
30384;SDS011;17181;51.002;4.096;2023-04-09T03:29:45;29.47;;;14.43;;
30384;SDS011;17181;51.002;4.096;2023-04-09T03:32:12;28.67;;;14.03;;
30384;SDS011;17181;51.002;4.096;2023-04-09T03:34:38;23.43;;;13.60;;
30384;SDS011;17181;51.002;4.096;2023-04-09T03:37:04;23.43;;;12.90;;
30384;SDS011;17181;51.002;4.096;2023-04-09T03:39:30;21.60;;;11.47;;
30384;SDS011;17181;51.002;4.096;2023-04-09T03:41:56;19.57;;;9.83;;
30384;SDS011;17181;51.002;4.096;2023-04-09T03:44:25;18.67;;;10.10;;
30384;SDS011;17181;51.002;4.096;2023-04-09T03:47:11;44.13;;;8.27;;
30384;SDS011;17181;51.002;4.096;2023-04-09T03:49:38;12.03;;;5.17;;
30384;SDS011;17181;51.002;4.096;2023-04-09T03:52:17;8.47;;;5.13;;
30384;SDS011;17181;51.002;4.096;2023-04-09T03:54:46;9.00;;;5.83;;
30384;SDS011;17181;51.002;4.096;2023-04-09T03:57:17;7.63;;;5.40;;
30384;SDS011;17181;51.002;4.096;2023-04-09T03:59:45;11.87;;;7.13;;
30384;SDS011;17181;51.002;4.096;2023-04-09T04:02:14;24.57;;;9.63;;
30384;SDS011;17181;51.002;4.096;2023-04-09T04:04:45;11.73;;;6.57;;
30384;SDS011;17181;51.002;4.096;2023-04-09T04:07:11;9.87;;;5.87;;
30384;SDS011;17181;51.002;4.096;2023-04-09T04:09:44;13.73;;;7.53;;
30384;SDS011;17181;51.002;4.096;2023-04-09T04:12:13;7.20;;;5.33;;
30384;SDS011;17181;51.002;4.096;2023-04-09T04:14:57;15.37;;;8.20;;
30384;SDS011;17181;51.002;4.096;2023-04-09T04:17:38;16.07;;;8.87;;
30384;SDS011;17181;51.002;4.096;2023-04-09T04:20:11;13.13;;;7.20;;
30384;SDS011;17181;51.002;4.096;2023-04-09T04:22:49;7.20;;;5.37;;
30384;SDS011;17181;51.002;4.096;2023-04-09T04:25:15;15.93;;;8.93;;
30384;SDS011;17181;51.002;4.096;2023-04-09T04:27:43;20.73;;;9.77;;
30384;SDS011;17181;51.002;4.096;2023-04-09T04:30:10;18.00;;;8.40;;
30384;SDS011;17181;51.002;4.096;2023-04-09T04:32:48;20.07;;;11.50;;
30384;SDS011;17181;51.002;4.096;2023-04-09T04:35:15;25.67;;;11.73;;
30384;SDS011;17181;51.002;4.096;2023-04-09T04:37:41;25.47;;;12.57;;
30384;SDS011;17181;51.002;4.096;2023-04-09T04:40:07;15.43;;;8.47;;
30384;SDS011;17181;51.002;4.096;2023-04-09T04:42:37;19.13;;;10.53;;
30384;SDS011;17181;51.002;4.096;2023-04-09T04:45:09;30.70;;;13.30;;
30384;SDS011;17181;51.002;4.096;2023-04-09T04:47:44;21.07;;;10.20;;
30384;SDS011;17181;51.002;4.096;2023-04-09T04:50:10;21.47;;;10.03;;
30384;SDS011;17181;51.002;4.096;2023-04-09T04:52:49;20.70;;;11.07;;
30384;SDS011;17181;51.002;4.096;2023-04-09T04:55:16;22.40;;;13.03;;
30384;SDS011;17181;51.002;4.096;2023-04-09T04:57:42;22.53;;;11.97;;
30384;SDS011;17181;51.002;4.096;2023-04-09T05:00:09;30.93;;;12.43;;
30384;SDS011;17181;51.002;4.096;2023-04-09T05:02:35;24.93;;;10.70;;
30384;SDS011;17181;51.002;4.096;2023-04-09T05:05:20;20.87;;;10.57;;
30384;SDS011;17181;51.002;4.096;2023-04-09T05:07:50;16.60;;;10.07;;
30384;SDS011;17181;51.002;4.096;2023-04-09T05:10:16;17.30;;;9.03;;
30384;SDS011;17181;51.002;4.096;2023-04-09T05:12:43;22.90;;;11.57;;
30384;SDS011;17181;51.002;4.096;2023-04-09T05:15:12;17.17;;;9.63;;
30384;SDS011;17181;51.002;4.096;2023-04-09T05:17:41;20.47;;;9.00;;
30384;SDS011;17181;51.002;4.096;2023-04-09T05:20:07;18.63;;;10.00;;
30384;SDS011;17181;51.002;4.096;2023-04-09T05:22:44;25.23;;;12.90;;
30384;SDS011;17181;51.002;4.096;2023-04-09T05:25:10;24.77;;;12.67;;
30384;SDS011;17181;51.002;4.096;2023-04-09T05:27:39;26.40;;;12.23;;
30384;SDS011;17181;51.002;4.096;2023-04-09T05:30:05;25.93;;;12.57;;
30384;SDS011;17181;51.002;4.096;2023-04-09T05:32:32;15.73;;;9.33;;
30384;SDS011;17181;51.002;4.096;2023-04-09T05:34:58;28.47;;;9.73;;
30384;SDS011;17181;51.002;4.096;2023-04-09T05:37:26;22.73;;;12.30;;
30384;SDS011;17181;51.002;4.096;2023-04-09T05:39:52;23.83;;;12.57;;
30384;SDS011;17181;51.002;4.096;2023-04-09T05:42:18;20.43;;;11.27;;
30384;SDS011;17181;51.002;4.096;2023-04-09T05:44:56;23.60;;;10.50;;
30384;SDS011;17181;51.002;4.096;2023-04-09T05:47:22;19.93;;;10.40;;
30384;SDS011;17181;51.002;4.096;2023-04-09T05:49:59;18.40;;;11.43;;
30384;SDS011;17181;51.002;4.096;2023-04-09T05:52:26;22.20;;;11.40;;
30384;SDS011;17181;51.002;4.096;2023-04-09T05:54:52;22.07;;;10.60;;
30384;SDS011;17181;51.002;4.096;2023-04-09T05:57:24;18.33;;;10.67;;
30384;SDS011;17181;51.002;4.096;2023-04-09T05:59:56;28.37;;;11.43;;
30384;SDS011;17181;51.002;4.096;2023-04-09T06:02:22;26.03;;;11.47;;
30384;SDS011;17181;51.002;4.096;2023-04-09T06:04:49;23.07;;;11.57;;
30384;SDS011;17181;51.002;4.096;2023-04-09T06:07:15;26.83;;;12.73;;
30384;SDS011;17181;51.002;4.096;2023-04-09T06:09:41;22.60;;;12.40;;
30384;SDS011;17181;51.002;4.096;2023-04-09T06:12:11;26.47;;;13.03;;
30384;SDS011;17181;51.002;4.096;2023-04-09T06:14:37;21.27;;;11.00;;
30384;SDS011;17181;51.002;4.096;2023-04-09T06:17:03;35.83;;;14.67;;
30384;SDS011;17181;51.002;4.096;2023-04-09T06:19:29;32.93;;;15.40;;
30384;SDS011;17181;51.002;4.096;2023-04-09T06:21:55;32.53;;;14.23;;
30384;SDS011;17181;51.002;4.096;2023-04-09T06:24:21;35.03;;;16.83;;
30384;SDS011;17181;51.002;4.096;2023-04-09T06:26:47;36.17;;;15.80;;
30384;SDS011;17181;51.002;4.096;2023-04-09T06:29:13;40.33;;;15.20;;
30384;SDS011;17181;51.002;4.096;2023-04-09T06:31:38;29.40;;;15.47;;
30384;SDS011;17181;51.002;4.096;2023-04-09T06:34:04;34.63;;;16.77;;
30384;SDS011;17181;51.002;4.096;2023-04-09T06:36:31;41.47;;;17.80;;
30384;SDS011;17181;51.002;4.096;2023-04-09T06:38:56;38.20;;;17.80;;
30384;SDS011;17181;51.002;4.096;2023-04-09T06:41:23;47.47;;;18.70;;
30384;SDS011;17181;51.002;4.096;2023-04-09T06:43:50;34.43;;;18.07;;
30384;SDS011;17181;51.002;4.096;2023-04-09T06:46:16;42.03;;;19.33;;
30384;SDS011;17181;51.002;4.096;2023-04-09T06:48:44;39.27;;;17.73;;
30384;SDS011;17181;51.002;4.096;2023-04-09T06:51:10;49.47;;;19.63;;
30384;SDS011;17181;51.002;4.096;2023-04-09T06:53:37;39.40;;;18.47;;
30384;SDS011;17181;51.002;4.096;2023-04-09T06:56:03;53.77;;;21.67;;
30384;SDS011;17181;51.002;4.096;2023-04-09T06:58:29;50.53;;;23.17;;
30384;SDS011;17181;51.002;4.096;2023-04-09T07:00:55;60.77;;;24.50;;
30384;SDS011;17181;51.002;4.096;2023-04-09T07:03:21;48.93;;;23.37;;
30384;SDS011;17181;51.002;4.096;2023-04-09T07:05:47;57.87;;;19.33;;
30384;SDS011;17181;51.002;4.096;2023-04-09T07:08:13;64.00;;;25.43;;
30384;SDS011;17181;51.002;4.096;2023-04-09T07:10:39;67.47;;;31.03;;
30384;SDS011;17181;51.002;4.096;2023-04-09T07:13:05;62.37;;;23.57;;
30384;SDS011;17181;51.002;4.096;2023-04-09T07:15:31;50.90;;;20.93;;
30384;SDS011;17181;51.002;4.096;2023-04-09T07:17:57;61.07;;;26.47;;
30384;SDS011;17181;51.002;4.096;2023-04-09T07:20:23;67.53;;;24.37;;
30384;SDS011;17181;51.002;4.096;2023-04-09T07:22:49;62.13;;;27.50;;
30384;SDS011;17181;51.002;4.096;2023-04-09T07:25:15;55.40;;;21.23;;
30384;SDS011;17181;51.002;4.096;2023-04-09T07:27:41;50.73;;;21.70;;
30384;SDS011;17181;51.002;4.096;2023-04-09T07:30:07;48.37;;;22.27;;
30384;SDS011;17181;51.002;4.096;2023-04-09T07:32:35;47.77;;;21.23;;
30384;SDS011;17181;51.002;4.096;2023-04-09T07:35:01;54.43;;;26.57;;
30384;SDS011;17181;51.002;4.096;2023-04-09T07:37:28;52.87;;;23.53;;
30384;SDS011;17181;51.002;4.096;2023-04-09T07:39:54;50.60;;;22.20;;
30384;SDS011;17181;51.002;4.096;2023-04-09T07:42:20;52.37;;;22.80;;
30384;SDS011;17181;51.002;4.096;2023-04-09T07:44:46;49.33;;;22.47;;
30384;SDS011;17181;51.002;4.096;2023-04-09T07:47:12;53.73;;;22.63;;
30384;SDS011;17181;51.002;4.096;2023-04-09T07:49:38;55.57;;;24.23;;
30384;SDS011;17181;51.002;4.096;2023-04-09T07:52:04;39.47;;;21.20;;
30384;SDS011;17181;51.002;4.096;2023-04-09T07:54:30;41.87;;;20.77;;
30384;SDS011;17181;51.002;4.096;2023-04-09T07:56:57;39.73;;;19.67;;
30384;SDS011;17181;51.002;4.096;2023-04-09T07:59:23;46.57;;;21.60;;
30384;SDS011;17181;51.002;4.096;2023-04-09T08:01:50;37.83;;;20.83;;
30384;SDS011;17181;51.002;4.096;2023-04-09T08:04:15;45.03;;;22.87;;
30384;SDS011;17181;51.002;4.096;2023-04-09T08:06:41;42.37;;;21.00;;
30384;SDS011;17181;51.002;4.096;2023-04-09T08:09:10;37.43;;;20.70;;
30384;SDS011;17181;51.002;4.096;2023-04-09T08:11:36;47.40;;;23.83;;
30384;SDS011;17181;51.002;4.096;2023-04-09T08:14:02;38.50;;;19.60;;
30384;SDS011;17181;51.002;4.096;2023-04-09T08:16:30;43.33;;;20.67;;
30384;SDS011;17181;51.002;4.096;2023-04-09T08:18:56;48.53;;;20.80;;
30384;SDS011;17181;51.002;4.096;2023-04-09T08:21:22;45.63;;;19.67;;
30384;SDS011;17181;51.002;4.096;2023-04-09T08:23:47;39.33;;;20.07;;
30384;SDS011;17181;51.002;4.096;2023-04-09T08:26:13;44.87;;;19.90;;
30384;SDS011;17181;51.002;4.096;2023-04-09T08:28:39;51.23;;;21.13;;
30384;SDS011;17181;51.002;4.096;2023-04-09T08:31:07;39.70;;;20.63;;
30384;SDS011;17181;51.002;4.096;2023-04-09T08:33:33;41.87;;;20.10;;
30384;SDS011;17181;51.002;4.096;2023-04-09T08:35:59;40.07;;;19.97;;
30384;SDS011;17181;51.002;4.096;2023-04-09T08:38:25;43.67;;;21.13;;
30384;SDS011;17181;51.002;4.096;2023-04-09T08:40:51;46.50;;;20.43;;
30384;SDS011;17181;51.002;4.096;2023-04-09T08:43:17;44.40;;;21.07;;
30384;SDS011;17181;51.002;4.096;2023-04-09T08:45:46;39.83;;;19.23;;
30384;SDS011;17181;51.002;4.096;2023-04-09T08:48:13;43.47;;;18.90;;
30384;SDS011;17181;51.002;4.096;2023-04-09T08:50:39;34.80;;;17.70;;
30384;SDS011;17181;51.002;4.096;2023-04-09T08:53:05;37.57;;;17.83;;
30384;SDS011;17181;51.002;4.096;2023-04-09T08:55:33;35.20;;;17.50;;
30384;SDS011;17181;51.002;4.096;2023-04-09T08:58:02;35.07;;;17.97;;
30384;SDS011;17181;51.002;4.096;2023-04-09T09:00:29;36.47;;;17.67;;
30384;SDS011;17181;51.002;4.096;2023-04-09T09:03:02;34.50;;;16.90;;
30384;SDS011;17181;51.002;4.096;2023-04-09T09:05:43;31.37;;;16.77;;
30384;SDS011;17181;51.002;4.096;2023-04-09T09:08:21;30.87;;;16.60;;
30384;SDS011;17181;51.002;4.096;2023-04-09T09:10:48;29.60;;;15.80;;
30384;SDS011;17181;51.002;4.096;2023-04-09T09:13:24;38.03;;;16.20;;
30384;SDS011;17181;51.002;4.096;2023-04-09T09:15:52;40.23;;;19.40;;
30384;SDS011;17181;51.002;4.096;2023-04-09T09:18:21;40.33;;;19.40;;
30384;SDS011;17181;51.002;4.096;2023-04-09T09:21:12;30.90;;;14.40;;
30384;SDS011;17181;51.002;4.096;2023-04-09T09:23:39;29.23;;;15.17;;
30384;SDS011;17181;51.002;4.096;2023-04-09T09:26:11;38.97;;;19.13;;
30384;SDS011;17181;51.002;4.096;2023-04-09T09:28:38;37.97;;;18.17;;
30384;SDS011;17181;51.002;4.096;2023-04-09T09:31:10;32.67;;;16.70;;
30384;SDS011;17181;51.002;4.096;2023-04-09T09:33:37;35.20;;;17.37;;
30384;SDS011;17181;51.002;4.096;2023-04-09T09:36:03;37.90;;;18.87;;
30384;SDS011;17181;51.002;4.096;2023-04-09T09:38:29;40.53;;;19.10;;
30384;SDS011;17181;51.002;4.096;2023-04-09T09:40:55;33.60;;;16.70;;
30384;SDS011;17181;51.002;4.096;2023-04-09T09:43:21;39.23;;;18.20;;
30384;SDS011;17181;51.002;4.096;2023-04-09T09:45:47;37.70;;;17.77;;
30384;SDS011;17181;51.002;4.096;2023-04-09T09:48:13;32.13;;;17.53;;
30384;SDS011;17181;51.002;4.096;2023-04-09T09:50:39;35.90;;;17.53;;
30384;SDS011;17181;51.002;4.096;2023-04-09T09:53:06;42.67;;;18.30;;
30384;SDS011;17181;51.002;4.096;2023-04-09T09:55:42;44.77;;;19.07;;
30384;SDS011;17181;51.002;4.096;2023-04-09T09:58:18;29.07;;;16.20;;
30384;SDS011;17181;51.002;4.096;2023-04-09T10:00:48;33.77;;;15.53;;
30384;SDS011;17181;51.002;4.096;2023-04-09T10:03:19;30.67;;;16.23;;
30384;SDS011;17181;51.002;4.096;2023-04-09T10:05:48;33.00;;;16.73;;
30384;SDS011;17181;51.002;4.096;2023-04-09T10:08:15;38.80;;;17.43;;
30384;SDS011;17181;51.002;4.096;2023-04-09T10:10:42;38.43;;;18.13;;
30384;SDS011;17181;51.002;4.096;2023-04-09T10:13:11;32.37;;;17.43;;
30384;SDS011;17181;51.002;4.096;2023-04-09T10:15:45;32.07;;;17.23;;
30384;SDS011;17181;51.002;4.096;2023-04-09T10:18:11;34.93;;;16.00;;
30384;SDS011;17181;51.002;4.096;2023-04-09T10:20:42;30.37;;;15.63;;
30384;SDS011;17181;51.002;4.096;2023-04-09T10:23:18;36.13;;;18.70;;
30384;SDS011;17181;51.002;4.096;2023-04-09T10:25:51;28.00;;;15.40;;
30384;SDS011;17181;51.002;4.096;2023-04-09T10:28:18;34.20;;;18.27;;
30384;SDS011;17181;51.002;4.096;2023-04-09T10:30:43;30.30;;;16.17;;
30384;SDS011;17181;51.002;4.096;2023-04-09T10:33:11;34.13;;;16.63;;
30384;SDS011;17181;51.002;4.096;2023-04-09T10:35:38;34.87;;;17.50;;
30384;SDS011;17181;51.002;4.096;2023-04-09T10:38:07;36.00;;;16.40;;
30384;SDS011;17181;51.002;4.096;2023-04-09T10:40:46;34.97;;;18.50;;
30384;SDS011;17181;51.002;4.096;2023-04-09T10:43:13;33.80;;;16.27;;
30384;SDS011;17181;51.002;4.096;2023-04-09T10:45:44;31.03;;;15.50;;
30384;SDS011;17181;51.002;4.096;2023-04-09T10:48:10;28.63;;;14.33;;
30384;SDS011;17181;51.002;4.096;2023-04-09T10:50:43;26.37;;;14.33;;
30384;SDS011;17181;51.002;4.096;2023-04-09T10:53:19;35.53;;;18.23;;
30384;SDS011;17181;51.002;4.096;2023-04-09T10:55:47;36.37;;;17.13;;
30384;SDS011;17181;51.002;4.096;2023-04-09T10:58:15;30.07;;;16.20;;
30384;SDS011;17181;51.002;4.096;2023-04-09T11:00:45;31.73;;;16.43;;
30384;SDS011;17181;51.002;4.096;2023-04-09T11:03:25;39.00;;;17.90;;
30384;SDS011;17181;51.002;4.096;2023-04-09T11:05:54;28.80;;;14.27;;
30384;SDS011;17181;51.002;4.096;2023-04-09T11:08:30;30.53;;;15.93;;
30384;SDS011;17181;51.002;4.096;2023-04-09T11:10:56;28.60;;;14.63;;
30384;SDS011;17181;51.002;4.096;2023-04-09T11:13:25;25.87;;;13.33;;
30384;SDS011;17181;51.002;4.096;2023-04-09T11:15:52;17.23;;;8.40;;
30384;SDS011;17181;51.002;4.096;2023-04-09T11:18:23;17.57;;;10.57;;
30384;SDS011;17181;51.002;4.096;2023-04-09T11:20:53;22.97;;;10.87;;
30384;SDS011;17181;51.002;4.096;2023-04-09T11:23:23;15.23;;;9.10;;
30384;SDS011;17181;51.002;4.096;2023-04-09T11:25:50;18.53;;;9.53;;
30384;SDS011;17181;51.002;4.096;2023-04-09T11:28:17;22.20;;;11.37;;
30384;SDS011;17181;51.002;4.096;2023-04-09T11:30:43;23.03;;;11.50;;
30384;SDS011;17181;51.002;4.096;2023-04-09T11:33:11;23.00;;;10.80;;
30384;SDS011;17181;51.002;4.096;2023-04-09T11:35:37;18.27;;;10.77;;
30384;SDS011;17181;51.002;4.096;2023-04-09T11:38:09;22.00;;;12.20;;
30384;SDS011;17181;51.002;4.096;2023-04-09T11:40:36;21.83;;;10.53;;
30384;SDS011;17181;51.002;4.096;2023-04-09T11:43:09;25.37;;;10.37;;
30384;SDS011;17181;51.002;4.096;2023-04-09T11:45:36;22.73;;;10.53;;
30384;SDS011;17181;51.002;4.096;2023-04-09T11:48:03;16.27;;;8.03;;
30384;SDS011;17181;51.002;4.096;2023-04-09T11:50:29;17.00;;;9.87;;
30384;SDS011;17181;51.002;4.096;2023-04-09T11:52:56;18.17;;;9.70;;
30384;SDS011;17181;51.002;4.096;2023-04-09T11:55:26;17.53;;;9.77;;
30384;SDS011;17181;51.002;4.096;2023-04-09T11:57:57;25.70;;;11.70;;
30384;SDS011;17181;51.002;4.096;2023-04-09T12:00:27;18.20;;;9.17;;
30384;SDS011;17181;51.002;4.096;2023-04-09T12:03:00;22.23;;;11.10;;
30384;SDS011;17181;51.002;4.096;2023-04-09T12:05:28;18.40;;;10.37;;
30384;SDS011;17181;51.002;4.096;2023-04-09T12:07:58;18.80;;;10.80;;
30384;SDS011;17181;51.002;4.096;2023-04-09T12:10:27;13.43;;;7.90;;
30384;SDS011;17181;51.002;4.096;2023-04-09T12:12:59;16.00;;;8.43;;
30384;SDS011;17181;51.002;4.096;2023-04-09T12:15:34;17.50;;;10.07;;
30384;SDS011;17181;51.002;4.096;2023-04-09T12:18:01;19.40;;;10.43;;
30384;SDS011;17181;51.002;4.096;2023-04-09T12:20:32;19.17;;;10.80;;
30384;SDS011;17181;51.002;4.096;2023-04-09T12:23:05;16.33;;;9.53;;
30384;SDS011;17181;51.002;4.096;2023-04-09T12:25:33;19.43;;;10.17;;
30384;SDS011;17181;51.002;4.096;2023-04-09T12:28:04;15.77;;;9.47;;
30384;SDS011;17181;51.002;4.096;2023-04-09T12:30:31;15.70;;;8.03;;
30384;SDS011;17181;51.002;4.096;2023-04-09T12:32:57;16.57;;;10.00;;
30384;SDS011;17181;51.002;4.096;2023-04-09T12:35:23;18.10;;;9.37;;
30384;SDS011;17181;51.002;4.096;2023-04-09T12:37:49;15.60;;;9.20;;
30384;SDS011;17181;51.002;4.096;2023-04-09T12:40:16;18.47;;;10.53;;
30384;SDS011;17181;51.002;4.096;2023-04-09T12:42:42;14.97;;;8.63;;
30384;SDS011;17181;51.002;4.096;2023-04-09T12:45:10;18.33;;;10.43;;
30384;SDS011;17181;51.002;4.096;2023-04-09T12:47:37;18.37;;;9.40;;
30384;SDS011;17181;51.002;4.096;2023-04-09T12:50:04;13.27;;;7.17;;
30384;SDS011;17181;51.002;4.096;2023-04-09T12:52:30;15.33;;;8.67;;
30384;SDS011;17181;51.002;4.096;2023-04-09T12:54:56;19.60;;;9.93;;
30384;SDS011;17181;51.002;4.096;2023-04-09T12:57:22;20.20;;;9.33;;
30384;SDS011;17181;51.002;4.096;2023-04-09T12:59:48;14.57;;;9.80;;
30384;SDS011;17181;51.002;4.096;2023-04-09T13:02:13;19.43;;;10.37;;
30384;SDS011;17181;51.002;4.096;2023-04-09T13:04:39;15.27;;;9.67;;
30384;SDS011;17181;51.002;4.096;2023-04-09T13:07:05;16.00;;;8.47;;
30384;SDS011;17181;51.002;4.096;2023-04-09T13:09:31;16.63;;;7.90;;
30384;SDS011;17181;51.002;4.096;2023-04-09T13:11:57;17.30;;;9.67;;
30384;SDS011;17181;51.002;4.096;2023-04-09T13:14:23;13.57;;;8.67;;
30384;SDS011;17181;51.002;4.096;2023-04-09T13:16:48;13.60;;;8.03;;
30384;SDS011;17181;51.002;4.096;2023-04-09T13:19:16;10.10;;;6.90;;
30384;SDS011;17181;51.002;4.096;2023-04-09T13:21:44;12.53;;;8.33;;
30384;SDS011;17181;51.002;4.096;2023-04-09T13:24:10;15.43;;;8.20;;
30384;SDS011;17181;51.002;4.096;2023-04-09T13:26:36;13.47;;;7.47;;
30384;SDS011;17181;51.002;4.096;2023-04-09T13:29:02;14.83;;;8.13;;
30384;SDS011;17181;51.002;4.096;2023-04-09T13:31:28;16.73;;;8.27;;
30384;SDS011;17181;51.002;4.096;2023-04-09T13:33:54;12.33;;;7.97;;
30384;SDS011;17181;51.002;4.096;2023-04-09T13:36:20;17.30;;;7.23;;
30384;SDS011;17181;51.002;4.096;2023-04-09T13:38:46;16.13;;;8.07;;
30384;SDS011;17181;51.002;4.096;2023-04-09T13:41:13;11.97;;;6.33;;
30384;SDS011;17181;51.002;4.096;2023-04-09T13:43:39;12.07;;;7.63;;
30384;SDS011;17181;51.002;4.096;2023-04-09T13:46:05;10.80;;;6.90;;
30384;SDS011;17181;51.002;4.096;2023-04-09T13:48:31;12.40;;;6.20;;
30384;SDS011;17181;51.002;4.096;2023-04-09T13:50:57;16.33;;;5.65;;
30384;SDS011;17181;51.002;4.096;2023-04-09T13:53:22;8.35;;;6.07;;
30384;SDS011;17181;51.002;4.096;2023-04-09T13:55:49;11.25;;;6.93;;
30384;SDS011;17181;51.002;4.096;2023-04-09T13:58:15;9.77;;;6.95;;
30384;SDS011;17181;51.002;4.096;2023-04-09T14:00:41;11.55;;;6.47;;
30384;SDS011;17181;51.002;4.096;2023-04-09T14:03:07;12.20;;;7.03;;
30384;SDS011;17181;51.002;4.096;2023-04-09T14:05:33;11.68;;;7.00;;
30384;SDS011;17181;51.002;4.096;2023-04-09T14:07:59;9.90;;;6.28;;
30384;SDS011;17181;51.002;4.096;2023-04-09T14:10:24;10.35;;;5.93;;
30384;SDS011;17181;51.002;4.096;2023-04-09T14:12:51;10.60;;;6.22;;
30384;SDS011;17181;51.002;4.096;2023-04-09T14:15:17;9.95;;;6.25;;
30384;SDS011;17181;51.002;4.096;2023-04-09T14:17:43;11.38;;;7.28;;
30384;SDS011;17181;51.002;4.096;2023-04-09T14:20:09;11.23;;;6.55;;
30384;SDS011;17181;51.002;4.096;2023-04-09T14:22:35;8.00;;;5.53;;
30384;SDS011;17181;51.002;4.096;2023-04-09T14:25:01;7.10;;;5.45;;
30384;SDS011;17181;51.002;4.096;2023-04-09T14:27:26;8.98;;;5.03;;
30384;SDS011;17181;51.002;4.096;2023-04-09T14:29:52;9.25;;;5.55;;
30384;SDS011;17181;51.002;4.096;2023-04-09T14:32:18;7.50;;;5.20;;
30384;SDS011;17181;51.002;4.096;2023-04-09T14:34:44;9.25;;;4.50;;
30384;SDS011;17181;51.002;4.096;2023-04-09T14:37:10;11.35;;;6.43;;
30384;SDS011;17181;51.002;4.096;2023-04-09T14:39:36;12.82;;;5.60;;